Time;durP1;ratioP1;P1;durP2;ratioP2;P2;SDS_P1;SDS_P2;PMS_P1;PMS_P2;Temp;Humidity;BMP_temperature;BMP_pressure;BME280_temperature;BME280_humidity;BME280_pressure;Samples;Min_cycle;Max_cycle;Signal;HPM_P1;HPM_P2
2021/06/20 00:00:55;;;;;;;12.93;6.68;;;;;;;27.56;52.69;100279.19;5036658;28;20117;-61
2021/06/20 00:03:21;;;;;;;12.25;7.22;;;;;;;27.60;52.35;100278.44;5036429;28;20104;-60
2021/06/20 00:05:51;;;;;;;12.15;6.05;;;;;;;27.64;53.40;100289.75;5036387;28;20079;-60
2021/06/20 00:08:16;;;;;;;10.25;7.43;;;;;;;27.68;52.41;100296.44;5036616;28;20044;-60
2021/06/20 00:10:42;;;;;;;11.68;6.47;;;;;;;27.72;52.10;100303.91;5040696;28;20049;-61
2021/06/20 00:13:07;;;;;;;11.07;7.28;;;;;;;27.76;52.79;100309.75;5056692;28;20029;-62
2021/06/20 00:15:35;;;;;;;11.57;6.70;;;;;;;27.76;52.41;100318.00;5056275;28;20022;-61
2021/06/20 00:18:01;;;;;;;12.70;8.25;;;;;;;27.83;52.28;100326.94;5054898;28;20135;-61
2021/06/20 00:20:32;;;;;;;13.90;7.75;;;;;;;27.85;53.18;100322.00;5055077;28;20538;-61
2021/06/20 00:22:58;;;;;;;15.85;7.93;;;;;;;27.88;51.95;100324.25;5055987;28;20059;-61
2021/06/20 00:25:24;;;;;;;11.73;7.07;;;;;;;27.85;51.89;100318.41;5056233;28;20025;-60
2021/06/20 00:27:51;;;;;;;12.13;6.60;;;;;;;27.90;52.47;100330.31;5054962;28;20025;-61
2021/06/20 00:30:19;;;;;;;12.90;6.85;;;;;;;27.93;52.49;100324.31;5054927;28;20081;-60
2021/06/20 00:32:45;;;;;;;14.00;6.78;;;;;;;27.95;52.09;100333.13;5056558;28;20025;-60
2021/06/20 00:35:11;;;;;;;16.02;7.03;;;;;;;27.98;52.11;100324.38;5054533;28;20029;-61
2021/06/20 00:37:37;;;;;;;13.70;7.45;;;;;;;28.01;52.03;100328.53;5037948;28;20565;-60
2021/06/20 00:40:04;;;;;;;13.35;6.88;;;;;;;28.02;52.83;100350.31;5055924;28;20053;-62
2021/06/20 00:42:30;;;;;;;15.63;6.55;;;;;;;28.10;52.60;100362.84;5055856;28;20021;-61
2021/06/20 00:44:55;;;;;;;12.05;6.63;;;;;;;28.12;51.90;100352.41;5056318;28;20029;-61
2021/06/20 00:47:20;;;;;;;13.90;7.97;;;;;;;28.16;52.94;100353.56;5055456;28;20036;-61
2021/06/20 00:49:46;;;;;;;13.48;7.32;;;;;;;28.19;51.96;100359.41;5055433;28;20116;-61
2021/06/20 00:52:13;;;;;;;13.90;7.68;;;;;;;28.24;52.05;100358.63;5055708;28;20366;-60
2021/06/20 00:54:46;;;;;;;10.05;6.45;;;;;;;28.24;52.36;100342.94;5055413;28;20037;-61
2021/06/20 00:57:14;;;;;;;12.32;6.93;;;;;;;28.29;51.81;100333.88;5055333;28;20021;-61
2021/06/20 00:59:39;;;;;;;12.43;7.13;;;;;;;28.31;51.67;100337.19;5055791;28;20363;-60
2021/06/20 01:02:05;;;;;;;11.27;6.95;;;;;;;28.35;52.39;100329.25;5055468;28;20099;-61
2021/06/20 01:04:30;;;;;;;12.15;7.70;;;;;;;28.34;52.30;100322.91;5037367;28;20037;-60
2021/06/20 01:06:56;;;;;;;14.70;8.63;;;;;;;28.39;52.43;100333.19;5037435;28;20033;-61
2021/06/20 01:09:21;;;;;;;11.65;8.02;;;;;;;28.36;52.45;100319.91;5037873;28;20082;-61
2021/06/20 01:11:46;;;;;;;14.27;8.48;;;;;;;28.38;52.17;100328.75;5055276;28;20409;-62
2021/06/20 01:14:12;;;;;;;14.98;8.75;;;;;;;28.40;52.35;100337.59;5055530;28;20128;-61
2021/06/20 01:16:38;;;;;;;13.50;8.52;;;;;;;28.36;52.04;100341.97;5054983;28;20537;-60
2021/06/20 01:19:03;;;;;;;17.83;9.40;;;;;;;28.37;51.62;100332.59;5037388;28;20111;-60
2021/06/20 01:21:29;;;;;;;14.95;9.13;;;;;;;28.34;51.95;100302.81;5055352;28;20029;-60
2021/06/20 01:23:54;;;;;;;16.80;8.30;;;;;;;28.35;51.98;100309.97;5055118;28;20062;-61
2021/06/20 01:26:20;;;;;;;15.70;9.48;;;;;;;28.37;51.63;100321.56;5054459;28;20033;-61
2021/06/20 01:28:52;;;;;;;13.38;9.07;;;;;;;28.37;52.60;100316.03;5054998;28;20553;-61
2021/06/20 01:31:18;;;;;;;14.82;7.63;;;;;;;28.34;52.42;100311.88;5054961;28;20469;-61
2021/06/20 01:33:44;;;;;;;13.50;8.07;;;;;;;28.34;52.19;100319.34;5036763;28;20037;-61
2021/06/20 01:36:10;;;;;;;12.88;8.18;;;;;;;28.33;52.13;100320.44;5054855;28;20048;-62
2021/06/20 01:38:36;;;;;;;14.85;7.28;;;;;;;28.33;51.99;100299.22;5053457;28;20122;-60
2021/06/20 01:41:01;;;;;;;10.02;5.53;;;;;;;28.33;52.63;100314.91;5054622;28;20450;-60
2021/06/20 01:43:27;;;;;;;12.10;6.97;;;;;;;28.35;52.22;100321.00;5055022;28;20021;-61
2021/06/20 01:45:52;;;;;;;7.57;4.93;;;;;;;28.35;51.47;100318.25;5054309;28;20057;-60
2021/06/20 01:48:17;;;;;;;15.05;6.38;;;;;;;28.36;52.57;100352.97;5054450;28;20037;-60
2021/06/20 01:50:43;;;;;;;11.18;5.63;;;;;;;28.38;52.93;100378.34;5054712;28;20112;-61
2021/06/20 01:53:10;;;;;;;8.38;5.90;;;;;;;28.38;51.91;100383.88;5054579;28;20036;-60
2021/06/20 01:55:38;;;;;;;11.43;4.50;;;;;;;28.35;52.47;100392.66;5036572;28;20052;-61
2021/06/20 01:58:09;;;;;;;4.43;3.42;;;;;;;28.26;52.27;100393.09;5054308;28;20036;-61
2021/06/20 02:00:37;;;;;;;3.90;2.85;;;;;;;28.21;52.47;100390.28;5054110;28;20025;-61
2021/06/20 02:03:14;;;;;;;6.93;3.40;;;;;;;28.17;52.29;100399.28;5054209;28;20115;-61
2021/06/20 02:05:41;;;;;;;4.20;2.90;;;;;;;28.11;51.37;100394.81;5053817;28;20039;-61
2021/06/20 02:08:07;;;;;;;7.00;3.78;;;;;;;28.08;51.68;100418.19;5054133;28;20039;-60
2021/06/20 02:10:33;;;;;;;13.75;4.50;;;;;;;28.03;51.49;100415.34;5051603;28;20054;-60
2021/06/20 02:12:59;;;;;;;7.07;4.07;;;;;;;27.99;52.07;100433.47;5054002;28;20037;-60
2021/06/20 02:15:25;;;;;;;11.35;4.68;;;;;;;27.95;51.94;100435.03;5053988;28;20021;-61
2021/06/20 02:17:51;;;;;;;9.95;4.32;;;;;;;27.92;52.53;100451.25;5053922;28;20071;-61
2021/06/20 02:20:18;;;;;;;9.57;4.53;;;;;;;27.86;51.28;100444.00;5035894;28;20021;-61
2021/06/20 02:22:46;;;;;;;7.90;4.80;;;;;;;27.80;51.75;100445.84;5053665;28;20107;-62
2021/06/20 02:25:14;;;;;;;11.10;5.50;;;;;;;27.78;51.57;100450.72;5052621;28;20032;-60
2021/06/20 02:27:40;;;;;;;9.43;6.15;;;;;;;27.78;52.39;100453.47;5053492;28;20056;-60
2021/06/20 02:30:07;;;;;;;13.00;6.20;;;;;;;27.76;52.38;100461.16;5053468;28;20064;-61
2021/06/20 02:32:33;;;;;;;12.77;6.47;;;;;;;27.78;51.82;100460.94;5053709;28;20462;-60
2021/06/20 02:34:58;;;;;;;13.20;7.03;;;;;;;27.76;51.74;100458.41;5035898;28;20111;-61
2021/06/20 02:37:24;;;;;;;11.05;6.95;;;;;;;27.73;52.15;100458.91;5052558;28;20029;-60
2021/06/20 02:39:50;;;;;;;12.50;6.30;;;;;;;27.74;51.76;100455.94;5053612;28;20025;-61
2021/06/20 02:42:16;;;;;;;13.68;7.50;;;;;;;27.73;52.69;100453.41;5035417;28;20469;-60
2021/06/20 02:44:42;;;;;;;14.30;7.45;;;;;;;27.70;52.25;100459.41;5053420;28;20033;-62
2021/06/20 02:47:08;;;;;;;17.80;8.15;;;;;;;27.68;52.04;100439.56;5053509;28;20033;-61
2021/06/20 02:49:35;;;;;;;12.73;7.13;;;;;;;27.67;52.17;100433.22;5053680;28;20500;-61
2021/06/20 02:52:01;;;;;;;13.50;7.40;;;;;;;27.66;51.92;100426.06;5052285;28;20048;-61
2021/06/20 02:54:26;;;;;;;12.38;7.05;;;;;;;27.63;51.40;100426.56;5053429;28;20036;-61
2021/06/20 02:56:52;;;;;;;14.27;8.25;;;;;;;27.61;52.26;100447.19;5035646;28;20488;-61
2021/06/20 02:59:18;;;;;;;14.77;8.38;;;;;;;27.58;51.84;100450.44;5053408;28;20104;-60
2021/06/20 03:01:43;;;;;;;15.25;8.45;;;;;;;27.49;51.97;100447.25;5053276;28;20107;-60
2021/06/20 03:04:10;;;;;;;16.90;8.52;;;;;;;27.47;52.01;100448.59;5053103;28;20040;-61
2021/06/20 03:06:35;;;;;;;18.15;8.77;;;;;;;27.41;52.05;100449.56;5053084;28;20032;-60
2021/06/20 03:09:01;;;;;;;17.50;9.20;;;;;;;27.43;51.83;100458.41;5052914;28;20033;-61
2021/06/20 03:11:26;;;;;;;15.30;8.20;;;;;;;27.38;51.93;100455.53;5052904;28;20132;-61
2021/06/20 03:13:52;;;;;;;15.98;8.90;;;;;;;27.38;52.16;100461.03;5053494;28;20415;-60
2021/06/20 03:16:19;;;;;;;17.65;7.70;;;;;;;27.31;51.76;100454.84;5052899;28;20033;-60
2021/06/20 03:18:45;;;;;;;14.35;8.00;;;;;;;27.32;52.04;100453.78;5052918;28;20043;-61
2021/06/20 03:21:10;;;;;;;15.48;8.68;;;;;;;27.31;51.67;100446.59;5053425;28;20458;-60
2021/06/20 03:23:36;;;;;;;17.48;8.98;;;;;;;27.31;51.79;100457.59;5053088;28;20029;-60
2021/06/20 03:26:02;;;;;;;20.10;9.43;;;;;;;27.29;51.60;100462.53;5053220;28;20025;-60
2021/06/20 03:28:28;;;;;;;17.45;8.68;;;;;;;27.29;52.20;100465.28;5034852;28;20393;-60
2021/06/20 03:30:53;;;;;;;14.93;9.10;;;;;;;27.29;52.01;100465.28;5052736;28;20021;-60
2021/06/20 03:33:18;;;;;;;14.55;8.38;;;;;;;27.27;52.18;100456.44;5052732;28;20036;-61
2021/06/20 03:35:44;;;;;;;17.10;8.40;;;;;;;27.28;52.08;100463.59;5053000;28;20064;-60
2021/06/20 03:38:09;;;;;;;16.33;8.07;;;;;;;27.27;52.00;100461.94;5035655;28;20385;-60
2021/06/20 03:40:35;;;;;;;16.85;8.88;;;;;;;27.27;51.25;100472.94;5052674;28;20494;-61
2021/06/20 03:43:00;;;;;;;20.50;9.25;;;;;;;27.25;52.04;100467.66;5053043;28;20083;-61
2021/06/20 03:45:26;;;;;;;15.88;9.07;;;;;;;27.26;51.28;100468.50;5052725;28;20029;-61
2021/06/20 03:47:51;;;;;;;14.63;8.40;;;;;;;27.26;52.00;100479.50;5052983;28;20029;-61
2021/06/20 03:50:16;;;;;;;18.02;8.48;;;;;;;27.28;52.09;100477.34;5037902;28;20111;-60
2021/06/20 03:52:42;;;;;;;19.48;9.20;;;;;;;27.27;51.11;100483.94;5056380;28;20028;-60
2021/06/20 03:55:09;;;;;;;16.95;8.18;;;;;;;27.24;51.69;100482.53;5056647;28;20033;-61
2021/06/20 03:57:34;;;;;;;16.33;8.77;;;;;;;27.21;51.46;100477.50;5056306;28;20020;-61
2021/06/20 04:00:00;;;;;;;17.10;9.52;;;;;;;27.24;51.43;100482.53;5055439;28;20094;-61
2021/06/20 04:02:25;;;;;;;12.05;7.38;;;;;;;27.24;51.61;100498.19;5056453;28;20025;-61
2021/06/20 04:04:51;;;;;;;14.52;7.40;;;;;;;27.26;51.20;100493.28;5056705;28;20102;-60
2021/06/20 04:07:16;;;;;;;17.98;7.47;;;;;;;27.27;51.70;100503.19;5056170;28;20033;-61
2021/06/20 04:09:43;;;;;;;13.40;5.90;;;;;;;27.29;51.94;100501.03;5056171;28;20031;-60
2021/06/20 04:12:11;;;;;;;12.07;5.82;;;;;;;27.31;51.75;100499.69;5038325;28;20052;-60
2021/06/20 04:14:38;;;;;;;10.40;4.68;;;;;;;27.31;51.71;100499.69;5056247;28;20040;-61
2021/06/20 04:17:03;;;;;;;8.98;4.35;;;;;;;27.37;51.72;100500.63;5037998;28;20025;-61
2021/06/20 04:19:29;;;;;;;4.97;3.00;;;;;;;27.38;51.20;100502.31;5056050;28;20123;-61
2021/06/20 04:21:54;;;;;;;4.15;2.60;;;;;;;27.40;50.79;100508.41;5038262;28;20103;-61
2021/06/20 04:24:20;;;;;;;3.58;2.20;;;;;;;27.39;51.66;100507.56;5037962;28;20040;-60
2021/06/20 04:26:45;;;;;;;7.43;1.98;;;;;;;27.42;51.81;100514.50;5038017;28;20033;-60
2021/06/20 04:29:10;;;;;;;2.58;1.98;;;;;;;27.41;51.16;100510.09;5055684;28;20090;-61
2021/06/20 04:31:36;;;;;;;2.92;1.63;;;;;;;27.41;51.66;100505.44;5056236;28;20354;-60
2021/06/20 04:34:02;;;;;;;2.67;1.55;;;;;;;27.43;50.65;100508.78;5055879;28;20090;-60
2021/06/20 04:36:27;;;;;;;3.10;1.55;;;;;;;27.39;50.64;100509.47;5055815;28;20363;-61
2021/06/20 04:38:53;;;;;;;3.55;1.50;;;;;;;27.44;50.75;100513.22;5054609;28;20025;-60
2021/06/20 04:41:20;;;;;;;7.72;2.20;;;;;;;27.46;51.01;100521.22;5055720;28;20047;-60
2021/06/20 04:46:30;;;;;;;2.30;1.20;;;;;;;27.58;50.90;100527.50;5055750;28;20111;-61
2021/06/20 04:49:19;;;;;;;2.05;1.40;;;;;;;27.63;50.68;100520.16;5055155;28;20072;-60
2021/06/20 04:51:44;;;;;;;7.18;1.85;;;;;;;27.78;50.46;100533.34;5055611;28;20461;-61
2021/06/20 04:54:13;;;;;;;2.42;1.58;;;;;;;27.83;50.02;100541.72;5055475;28;20135;-61
2021/06/20 04:56:40;;;;;;;3.13;1.58;;;;;;;27.85;50.01;100539.53;5055191;28;20058;-61
2021/06/20 04:59:06;;;;;;;1.77;1.42;;;;;;;27.86;49.33;100546.72;5055671;28;20029;-61
2021/06/20 05:01:31;;;;;;;3.30;1.48;;;;;;;27.89;49.43;100546.19;5036811;28;20029;-60
2021/06/20 05:03:57;;;;;;;6.32;1.73;;;;;;;27.89;49.99;100546.19;5055632;28;20032;-60
2021/06/20 05:06:22;;;;;;;2.25;1.30;;;;;;;27.90;49.23;100556.13;5055513;28;20458;-61
2021/06/20 05:08:48;;;;;;;4.32;1.50;;;;;;;27.92;49.17;100562.22;5055564;28;20369;-60
2021/06/20 05:11:13;;;;;;;5.80;1.58;;;;;;;27.95;49.06;100561.72;5037204;28;20053;-62
2021/06/20 05:13:39;;;;;;;3.13;1.65;;;;;;;28.01;49.40;100549.72;5054990;28;20043;-61
2021/06/20 05:16:06;;;;;;;2.97;1.50;;;;;;;28.12;49.13;100562.59;5054808;28;20037;-61
2021/06/20 05:18:31;;;;;;;1.95;1.55;;;;;;;28.14;49.67;100554.91;5036984;28;20452;-61
2021/06/20 05:20:57;;;;;;;2.63;1.63;;;;;;;28.24;48.77;100563.34;5036890;28;20052;-60
2021/06/20 05:23:22;;;;;;;3.95;1.75;;;;;;;28.41;48.48;100570.75;5054850;28;20029;-61
2021/06/20 05:25:48;;;;;;;2.22;1.67;;;;;;;28.44;49.06;100562.00;5054918;28;20413;-60
2021/06/20 05:28:14;;;;;;;2.25;1.77;;;;;;;28.59;48.27;100563.03;5054554;28;20029;-60
2021/06/20 05:30:41;;;;;;;3.92;1.80;;;;;;;28.65;48.12;100566.75;5037167;28;20079;-61
2021/06/20 05:33:06;;;;;;;5.38;1.67;;;;;;;28.79;49.12;100568.03;5037034;28;20491;-60
2021/06/20 05:35:32;;;;;;;4.97;1.80;;;;;;;28.94;47.70;100571.00;5054411;28;20056;-60
2021/06/20 05:37:58;;;;;;;2.50;1.63;;;;;;;29.04;47.62;100573.91;5054586;28;20060;-60
2021/06/20 05:40:23;;;;;;;2.53;1.30;;;;;;;29.23;47.31;100572.50;5036731;28;20029;-60
2021/06/20 05:42:48;;;;;;;6.32;1.75;;;;;;;29.21;47.95;100584.88;5054797;28;20035;-61
2021/06/20 05:45:14;;;;;;;5.20;1.30;;;;;;;29.23;48.25;100580.78;5036889;28;20100;-61
2021/06/20 05:47:40;;;;;;;3.67;1.30;;;;;;;29.45;47.18;100578.84;5054554;28;20075;-61
2021/06/20 05:50:06;;;;;;;2.50;1.48;;;;;;;29.62;47.38;100569.66;5053202;28;20125;-61
2021/06/20 05:52:31;;;;;;;3.78;1.80;;;;;;;29.76;46.36;100573.66;5052738;28;20036;-62
2021/06/20 05:54:56;;;;;;;2.55;1.30;;;;;;;29.85;46.22;100583.97;5054039;28;20100;-61
2021/06/20 05:57:22;;;;;;;1.20;0.98;;;;;;;30.01;46.15;100587.75;5054233;28;20021;-61
2021/06/20 05:59:48;;;;;;;2.22;0.90;;;;;;;30.11;46.25;100590.56;5036188;28;20033;-62
2021/06/20 06:02:13;;;;;;;3.33;1.25;;;;;;;30.23;45.53;100569.13;5054338;28;20378;-62
2021/06/20 06:04:41;;;;;;;1.52;1.00;;;;;;;30.33;45.06;100588.53;5035961;28;20067;-61
2021/06/20 06:07:06;;;;;;;1.83;1.08;;;;;;;30.08;45.84;100593.88;5054412;28;20104;-61
2021/06/20 06:09:31;;;;;;;6.65;1.55;;;;;;;30.27;44.76;100584.06;5054189;28;20154;-61
2021/06/20 06:11:57;;;;;;;6.90;1.65;;;;;;;30.44;44.70;100586.72;5032769;28;20090;-61
2021/06/20 06:14:23;;;;;;;2.15;1.00;;;;;;;30.50;44.65;100586.50;5049298;28;20470;-61
2021/06/20 06:16:49;;;;;;;5.43;1.00;;;;;;;30.45;44.51;100593.91;5033840;28;20025;-61
2021/06/20 06:19:16;;;;;;;2.03;1.10;;;;;;;30.60;44.24;100590.44;5034469;28;20034;-62
2021/06/20 06:21:42;;;;;;;1.42;1.33;;;;;;;30.70;44.00;100584.97;5033863;28;20457;-61
2021/06/20 06:24:08;;;;;;;3.50;1.20;;;;;;;30.69;44.10;100584.13;5034148;28;20025;-61
2021/06/20 06:26:33;;;;;;;0.88;0.88;;;;;;;31.04;43.57;100580.75;5033791;28;20429;-61
2021/06/20 06:28:58;;;;;;;2.58;0.93;;;;;;;30.98;43.23;100590.13;5034103;28;20099;-61
2021/06/20 06:31:24;;;;;;;0.88;0.85;;;;;;;31.09;42.90;100580.78;5034243;28;20378;-61
2021/06/20 06:33:49;;;;;;;1.60;1.10;;;;;;;31.36;42.78;100578.66;5034000;28;20496;-62
2021/06/20 06:36:14;;;;;;;1.85;1.00;;;;;;;31.60;42.60;100581.81;5049699;28;20029;-61
2021/06/20 06:38:40;;;;;;;2.40;0.98;;;;;;;31.58;42.25;100565.44;5032484;28;20113;-62
2021/06/20 06:41:05;;;;;;;3.70;1.08;;;;;;;31.78;42.03;100572.97;5033562;28;20430;-61
2021/06/20 06:43:30;;;;;;;2.65;1.00;;;;;;;31.41;42.29;100580.63;5033553;28;20084;-61
2021/06/20 06:45:57;;;;;;;2.67;1.00;;;;;;;31.49;42.19;100592.00;5033541;28;20025;-61
2021/06/20 06:48:23;;;;;;;1.67;1.08;;;;;;;31.74;41.53;100595.97;5033730;28;20482;-59
2021/06/20 06:50:48;;;;;;;2.33;0.90;;;;;;;31.69;41.41;100582.91;5032143;28;20067;-59
2021/06/20 06:53:14;;;;;;;2.22;1.08;;;;;;;31.83;40.92;100589.59;5033333;28;20036;-61
2021/06/20 06:55:39;;;;;;;1.75;1.40;;;;;;;31.88;40.88;100588.78;5033905;28;20121;-61
2021/06/20 06:58:05;;;;;;;2.25;1.20;;;;;;;32.01;40.64;100591.88;5033550;28;20036;-61
2021/06/20 07:00:30;;;;;;;2.10;0.90;;;;;;;32.17;40.87;100601.84;5033764;28;20121;-61
2021/06/20 07:02:56;;;;;;;4.05;0.73;;;;;;;32.48;39.91;100604.59;5033505;28;20470;-61
2021/06/20 07:05:21;;;;;;;4.13;0.93;;;;;;;32.37;39.96;100611.28;5033463;28;20029;-61
2021/06/20 07:07:47;;;;;;;5.90;0.77;;;;;;;32.62;39.85;100614.88;5033459;28;20064;-61
2021/06/20 07:10:13;;;;;;;4.78;0.75;;;;;;;32.16;40.44;100616.00;5033192;28;20029;-57
2021/06/20 07:12:39;;;;;;;1.45;0.95;;;;;;;32.43;39.40;100619.31;5050492;28;20063;-58
2021/06/20 07:15:06;;;;;;;2.13;0.73;;;;;;;32.33;40.22;100616.53;5053399;28;20589;-57
2021/06/20 07:17:35;;;;;;;4.35;0.80;;;;;;;32.32;39.68;100609.34;5052947;28;20025;-58
2021/06/20 07:20:02;;;;;;;1.73;0.85;;;;;;;32.59;40.07;100612.66;5052175;28;20456;-57
2021/06/20 07:22:28;;;;;;;0.90;0.57;;;;;;;32.73;39.42;100610.97;5053150;28;20385;-58
2021/06/20 07:24:54;;;;;;;1.98;0.65;;;;;;;32.49;39.47;100614.59;5055912;28;20048;-58
2021/06/20 07:27:19;;;;;;;2.33;1.17;;;;;;;32.66;39.37;100607.69;5056876;28;20039;-57
2021/06/20 07:29:47;;;;;;;0.68;0.68;;;;;;;32.71;39.01;100595.72;5057129;28;20044;-58
2021/06/20 07:32:13;;;;;;;1.50;0.70;;;;;;;32.91;39.07;100605.94;5056085;28;20103;-58
2021/06/20 07:34:38;;;;;;;3.00;0.63;;;;;;;33.24;38.53;100616.41;5019551;28;20053;-58
2021/06/20 07:37:03;;;;;;;1.20;0.95;;;;;;;33.41;38.03;100611.34;5037234;28;20492;-58
2021/06/20 07:39:30;;;;;;;3.63;0.70;;;;;;;33.69;38.22;100619.00;5036810;28;20037;-55
2021/06/20 07:41:55;;;;;;;2.58;0.93;;;;;;;33.95;37.06;100609.34;5037085;28;20032;-58
2021/06/20 07:44:21;;;;;;;1.63;0.82;;;;;;;33.98;38.03;100616.28;5035654;28;20025;-58
2021/06/20 07:46:46;;;;;;;1.50;0.73;;;;;;;34.24;36.81;100619.75;5036874;28;20397;-58
2021/06/20 07:49:12;;;;;;;1.00;0.60;;;;;;;34.51;36.20;100615.31;5037255;28;20354;-58
2021/06/20 07:51:37;;;;;;;4.18;1.05;;;;;;;34.73;36.28;100617.63;5036847;28;20026;-58
2021/06/20 07:54:03;;;;;;;2.33;0.60;;;;;;;34.92;36.14;100610.22;5036533;28;20108;-58
2021/06/20 07:56:28;;;;;;;3.65;0.82;;;;;;;35.07;36.01;100623.97;5036871;28;20029;-56
2021/06/20 07:58:56;;;;;;;4.45;0.70;;;;;;;35.20;34.95;100632.75;5036487;28;20433;-55
2021/06/20 08:01:23;;;;;;;1.38;0.90;;;;;;;35.26;34.91;100637.94;5036541;28;20394;-58
2021/06/20 08:03:48;;;;;;;2.42;0.85;;;;;;;35.37;35.16;100645.09;5037552;28;20049;-58
2021/06/20 08:06:14;;;;;;;2.95;0.50;;;;;;;35.04;35.21;100649.59;5036890;28;20403;-58
2021/06/20 08:08:39;;;;;;;0.65;0.40;;;;;;;34.79;35.65;100647.09;5036315;28;20037;-55
2021/06/20 08:11:05;;;;;;;1.85;0.60;;;;;;;34.41;36.18;100634.06;5037987;28;20053;-55
2021/06/20 08:13:30;;;;;;;3.90;1.15;;;;;;;34.53;34.73;100624.19;5056140;28;20028;-55
2021/06/20 08:15:56;;;;;;;4.03;0.60;;;;;;;34.87;35.31;100623.38;5056411;28;20039;-56
2021/06/20 08:18:21;;;;;;;1.10;0.75;;;;;;;35.20;35.20;100621.63;5056337;28;20529;-56
2021/06/20 08:20:47;;;;;;;0.77;0.77;;;;;;;34.99;34.62;100630.16;5056337;28;20492;-56
2021/06/20 08:23:12;;;;;;;2.65;0.57;;;;;;;35.04;34.31;100621.75;5055969;28;20072;-56
2021/06/20 08:25:37;;;;;;;3.95;0.73;;;;;;;35.27;34.37;100622.06;5056235;28;20025;-56
2021/06/20 08:28:03;;;;;;;1.02;0.73;;;;;;;35.62;33.73;100638.38;5056167;28;20057;-56
2021/06/20 08:30:29;;;;;;;3.47;0.50;;;;;;;35.95;33.86;100637.31;5056017;28;20123;-59
2021/06/20 08:32:54;;;;;;;0.75;0.60;;;;;;;36.13;33.37;100647.66;5055796;28;20021;-60
2021/06/20 08:35:19;;;;;;;0.60;0.43;;;;;;;36.07;33.21;100659.22;5054802;28;20032;-60
2021/06/20 08:37:46;;;;;;;2.20;0.60;;;;;;;36.15;33.04;100645.41;5055723;28;20059;-60
2021/06/20 08:40:12;;;;;;;0.85;0.50;;;;;;;36.52;32.27;100638.13;5054773;28;20151;-59
2021/06/20 08:42:37;;;;;;;4.45;0.70;;;;;;;36.68;32.22;100631.16;5037779;28;20105;-59
2021/06/20 08:45:04;;;;;;;0.65;0.32;;;;;;;36.27;32.87;100630.16;5055892;28;20104;-60
2021/06/20 08:47:29;;;;;;;3.20;0.38;;;;;;;36.17;32.46;100632.00;5055289;28;20052;-60
2021/06/20 08:49:55;;;;;;;1.65;0.40;;;;;;;35.93;32.72;100635.97;5055612;28;20029;-59
2021/06/20 08:52:20;;;;;;;1.60;0.45;;;;;;;35.69;32.67;100636.03;5037940;28;20100;-59
2021/06/20 08:55:01;;;;;;;0.95;0.63;;;;;;;35.42;33.09;100631.09;5056096;28;20032;-59
2021/06/20 08:57:33;;;;;;;2.03;0.70;;;;;;;35.19;32.63;100636.66;5055607;28;20107;-59
2021/06/20 08:59:59;;;;;;;;;;;;;;;35.09;33.03;100635.66;5055787;28;20021;-60
2021/06/20 09:02:28;;;;;;;0.57;0.40;;;;;;;34.97;33.02;100626.03;5037976;28;20261;-59
2021/06/20 09:04:58;;;;;;;2.38;0.60;;;;;;;34.78;34.13;100625.97;5037847;28;20037;-60
2021/06/20 09:07:32;;;;;;;0.85;0.40;;;;;;;34.64;33.60;100636.13;5055271;28;20024;-60
2021/06/20 09:10:07;;;;;;;3.35;0.50;;;;;;;34.66;33.51;100639.44;5037480;28;20358;-59
2021/06/20 09:12:50;;;;;;;1.63;0.68;;;;;;;34.86;33.20;100647.59;5055376;28;20049;-59
2021/06/20 09:15:18;;;;;;;2.47;0.70;;;;;;;35.38;32.39;100643.09;5055576;28;20075;-59
2021/06/20 09:17:49;;;;;;;3.75;0.52;;;;;;;35.89;32.63;100646.91;5055246;28;20031;-59
2021/06/20 09:20:15;;;;;;;0.75;0.75;;;;;;;36.32;32.18;100649.63;5037590;28;20041;-59
2021/06/20 09:22:40;;;;;;;0.50;0.50;;;;;;;36.43;31.68;100657.53;5037365;28;20039;-59
2021/06/20 09:25:07;;;;;;;1.67;0.50;;;;;;;36.74;31.18;100653.06;5055302;28;20029;-59
2021/06/20 09:27:33;;;;;;;5.07;0.60;;;;;;;36.87;31.45;100645.84;5037280;28;20021;-60
2021/06/20 09:30:10;;;;;;;2.60;0.40;;;;;;;36.91;30.79;100663.66;5055265;28;20120;-60
2021/06/20 09:32:35;;;;;;;0.55;0.50;;;;;;;36.89;30.88;100654.75;5053663;28;20033;-59
2021/06/20 09:35:03;;;;;;;0.60;0.50;;;;;;;37.09;30.59;100665.56;5053858;28;20075;-60
2021/06/20 09:37:28;;;;;;;1.92;0.57;;;;;;;37.40;30.44;100660.19;5054897;28;20466;-60
2021/06/20 09:39:54;;;;;;;1.15;0.65;;;;;;;37.80;30.46;100658.53;5055010;28;20079;-59
2021/06/20 09:42:19;;;;;;;2.10;0.47;;;;;;;38.09;30.57;100656.16;5054723;28;20033;-60
2021/06/20 09:44:52;;;;;;;1.73;0.60;;;;;;;37.73;30.56;100644.13;5055025;28;20466;-60
2021/06/20 09:47:20;;;;;;;2.72;0.43;;;;;;;37.47;31.35;100654.22;5053796;28;20036;-59
2021/06/20 09:49:47;;;;;;;0.50;0.50;;;;;;;37.31;30.66;100646.13;5054534;28;20051;-60
2021/06/20 09:52:14;;;;;;;2.13;0.80;;;;;;;37.16;30.53;100649.22;5054758;28;20017;-59
2021/06/20 09:54:44;;;;;;;2.95;0.45;;;;;;;37.07;30.89;100653.88;5053041;28;20044;-60
2021/06/20 09:57:16;;;;;;;0.77;0.50;;;;;;;37.13;30.65;100654.63;5054467;28;20059;-60
2021/06/20 09:59:53;;;;;;;1.13;0.50;;;;;;;37.08;30.33;100669.50;5036436;28;20469;-59
2021/06/20 10:02:27;;;;;;;1.10;0.47;;;;;;;37.45;30.20;100667.66;5054052;28;20028;-59
2021/06/20 10:04:53;;;;;;;1.80;0.70;;;;;;;37.63;29.54;100675.13;5054083;28;20060;-59
2021/06/20 10:07:20;;;;;;;13.00;12.40;;;;;;;37.96;29.32;100673.84;5054061;28;20375;-59
2021/06/20 10:09:46;;;;;;;28.05;26.92;;;;;;;38.35;28.79;100674.06;5054330;28;20021;-60
2021/06/20 10:12:11;;;;;;;46.42;44.42;;;;;;;39.16;28.57;100657.91;5027536;28;20053;-61
2021/06/20 10:14:43;;;;;;;0.68;0.68;;;;;;;40.18;27.08;100661.31;5034502;28;20565;-60
2021/06/20 10:17:12;;;;;;;1.42;0.90;;;;;;;40.73;26.64;100664.25;5033376;28;20086;-59
2021/06/20 10:19:41;;;;;;;4.38;1.60;;;;;;;40.96;26.61;100663.69;5000409;28;20025;-59
2021/06/20 10:22:09;;;;;;;1.27;0.50;;;;;;;40.10;27.63;100663.78;5032932;28;20393;-59
2021/06/20 10:24:46;;;;;;;0.43;0.43;;;;;;;39.32;28.01;100655.50;5016842;28;20402;-59
2021/06/20 10:27:27;;;;;;;0.50;0.40;;;;;;;38.78;28.46;100667.94;5034365;28;20029;-60
2021/06/20 10:29:54;;;;;;;0.55;0.32;;;;;;;38.27;28.88;100663.59;5033786;28;20382;-60
2021/06/20 10:32:20;;;;;;;1.65;0.82;;;;;;;37.89;28.86;100648.25;5034044;28;20072;-60
2021/06/20 10:34:58;;;;;;;3.40;0.52;;;;;;;37.70;28.58;100636.34;5034294;28;20462;-59
2021/06/20 10:37:25;;;;;;;0.40;0.40;;;;;;;37.58;28.68;100636.88;5034231;28;20391;-59
2021/06/20 10:39:52;;;;;;;0.63;0.60;;;;;;;37.61;28.89;100643.81;5032527;28;20532;-59
2021/06/20 10:42:18;;;;;;;2.47;0.60;;;;;;;37.52;28.90;100652.16;5033820;28;20029;-59
2021/06/20 10:44:46;;;;;;;1.77;0.50;;;;;;;37.42;29.25;100637.50;5033919;28;20098;-59
2021/06/20 10:47:24;;;;;;;4.72;0.68;;;;;;;37.45;28.88;100634.13;5034233;28;20105;-60
2021/06/20 10:49:57;;;;;;;2.17;0.55;;;;;;;37.37;29.24;100618.88;5034018;28;20366;-59
2021/06/20 10:52:22;;;;;;;2.85;0.82;;;;;;;37.30;29.42;100626.84;5033721;28;20071;-59
2021/06/20 10:54:52;;;;;;;0.45;0.35;;;;;;;37.17;29.29;100628.53;5033854;28;20096;-59
2021/06/20 10:57:27;;;;;;;0.68;0.40;;;;;;;36.81;29.39;100630.31;5033390;28;20025;-60
2021/06/20 10:59:55;;;;;;;1.55;0.63;;;;;;;36.54;30.12;100627.50;5032824;28;20033;-60
2021/06/20 11:02:30;;;;;;;3.13;0.50;;;;;;;36.24;29.64;100619.63;5032068;28;20022;-59
2021/06/20 11:04:56;;;;;;;0.50;0.40;;;;;;;36.03;30.11;100619.94;5033658;28;20049;-60
2021/06/20 11:07:23;;;;;;;1.25;0.55;;;;;;;35.88;30.26;100617.34;5033665;28;20065;-59
2021/06/20 11:09:49;;;;;;;0.75;0.60;;;;;;;35.87;30.61;100615.69;5016106;28;20101;-59
2021/06/20 11:12:15;;;;;;;1.20;0.77;;;;;;;36.22;30.34;100606.78;5031134;28;20067;-60
2021/06/20 11:14:43;;;;;;;1.10;0.77;;;;;;;36.14;30.17;100606.66;5033261;28;20034;-59
2021/06/20 11:17:08;;;;;;;2.13;1.10;;;;;;;35.99;30.42;100599.31;5033273;28;20120;-59
2021/06/20 11:19:34;;;;;;;1.77;0.60;;;;;;;35.84;30.63;100605.16;5033713;28;20104;-59
2021/06/20 11:22:02;;;;;;;0.82;0.60;;;;;;;35.70;31.11;100598.66;5033430;28;20034;-60